sensor_id;sensor_type;location;lat;lon;timestamp;pressure;altitude;pressure_sealevel;temperature;humidity
64713;BME280;51140;45.340;5.980;2023-03-18T00:00:45;96581.00;;;8.07;100.00
64713;BME280;51140;45.340;5.980;2023-03-18T00:03:11;96573.34;;;8.05;100.00
64713;BME280;51140;45.340;5.980;2023-03-18T00:05:37;96569.66;;;7.95;100.00
64713;BME280;51140;45.340;5.980;2023-03-18T00:08:03;96573.72;;;7.99;100.00
64713;BME280;51140;45.340;5.980;2023-03-18T00:10:30;96578.84;;;8.01;100.00
64713;BME280;51140;45.340;5.980;2023-03-18T00:12:56;96567.50;;;7.89;100.00
64713;BME280;51140;45.340;5.980;2023-03-18T00:15:21;96565.09;;;7.86;100.00
64713;BME280;51140;45.340;5.980;2023-03-18T00:17:47;96556.38;;;7.74;100.00
64713;BME280;51140;45.340;5.980;2023-03-18T00:20:14;96568.50;;;7.74;100.00
64713;BME280;51140;45.340;5.980;2023-03-18T00:22:41;96580.31;;;7.65;100.00
64713;BME280;51140;45.340;5.980;2023-03-18T00:25:09;96589.66;;;7.68;100.00
64713;BME280;51140;45.340;5.980;2023-03-18T00:27:36;96579.94;;;7.57;100.00
64713;BME280;51140;45.340;5.980;2023-03-18T00:30:03;96563.09;;;7.64;100.00
64713;BME280;51140;45.340;5.980;2023-03-18T00:32:30;96566.72;;;7.62;100.00
64713;BME280;51140;45.340;5.980;2023-03-18T00:34:57;96575.06;;;7.52;100.00
64713;BME280;51140;45.340;5.980;2023-03-18T00:37:24;96579.94;;;7.57;100.00
64713;BME280;51140;45.340;5.980;2023-03-18T00:39:59;96568.31;;;7.50;100.00
64713;BME280;51140;45.340;5.980;2023-03-18T00:42:34;96565.94;;;7.47;100.00
64713;BME280;51140;45.340;5.980;2023-03-18T00:45:07;96571.22;;;7.45;100.00
64713;BME280;51140;45.340;5.980;2023-03-18T00:47:33;96562.28;;;7.37;100.00
64713;BME280;51140;45.340;5.980;2023-03-18T00:50:00;96568.72;;;7.44;100.00
64713;BME280;51140;45.340;5.980;2023-03-18T00:52:27;96572.03;;;7.46;100.00
64713;BME280;51140;45.340;5.980;2023-03-18T00:54:52;96563.75;;;7.41;100.00
64713;BME280;51140;45.340;5.980;2023-03-18T00:57:18;96564.88;;;7.37;100.00
64713;BME280;51140;45.340;5.980;2023-03-18T00:59:43;96571.91;;;7.35;100.00
64713;BME280;51140;45.340;5.980;2023-03-18T01:02:09;96580.16;;;7.27;100.00
64713;BME280;51140;45.340;5.980;2023-03-18T01:04:34;96587.19;;;7.25;100.00
64713;BME280;51140;45.340;5.980;2023-03-18T01:06:59;96584.97;;;7.19;100.00
64713;BME280;51140;45.340;5.980;2023-03-18T01:09:25;96584.41;;;7.28;100.00
64713;BME280;51140;45.340;5.980;2023-03-18T01:11:51;96595.16;;;7.22;100.00
64713;BME280;51140;45.340;5.980;2023-03-18T01:14:17;96592.59;;;7.22;100.00
64713;BME280;51140;45.340;5.980;2023-03-18T01:16:43;96584.44;;;7.14;100.00
64713;BME280;51140;45.340;5.980;2023-03-18T01:19:09;96587.19;;;7.25;100.00
64713;BME280;51140;45.340;5.980;2023-03-18T01:21:34;96584.03;;;7.20;100.00
64713;BME280;51140;45.340;5.980;2023-03-18T01:24:00;96582.03;;;7.11;100.00
64713;BME280;51140;45.340;5.980;2023-03-18T01:26:26;96592.72;;;6.92;100.00
64713;BME280;51140;45.340;5.980;2023-03-18T01:28:51;96593.25;;;6.97;100.00
64713;BME280;51140;45.340;5.980;2023-03-18T01:31:17;96592.63;;;6.94;100.00
64713;BME280;51140;45.340;5.980;2023-03-18T01:33:44;96585.97;;;6.89;100.00
64713;BME280;51140;45.340;5.980;2023-03-18T01:36:10;96569.22;;;6.95;100.00
64713;BME280;51140;45.340;5.980;2023-03-18T01:38:36;96559.31;;;7.02;100.00
64713;BME280;51140;45.340;5.980;2023-03-18T01:41:02;96559.31;;;7.02;100.00
64713;BME280;51140;45.340;5.980;2023-03-18T01:43:33;96565.63;;;6.98;100.00
64713;BME280;51140;45.340;5.980;2023-03-18T01:46:00;96567.03;;;6.89;100.00
64713;BME280;51140;45.340;5.980;2023-03-18T01:48:29;96566.69;;;6.81;100.00
64713;BME280;51140;45.340;5.980;2023-03-18T01:51:02;96557.16;;;6.81;100.00
64713;BME280;51140;45.340;5.980;2023-03-18T01:53:37;96561.66;;;6.78;100.00
64713;BME280;51140;45.340;5.980;2023-03-18T01:56:04;96562.03;;;6.72;100.00
64713;BME280;51140;45.340;5.980;2023-03-18T01:58:41;96557.50;;;6.75;100.00
64713;BME280;51140;45.340;5.980;2023-03-18T02:01:23;96554.19;;;6.73;100.00
64713;BME280;51140;45.340;5.980;2023-03-18T02:03:51;96549.28;;;6.69;100.00
64713;BME280;51140;45.340;5.980;2023-03-18T02:06:17;96556.31;;;6.67;100.00
64713;BME280;51140;45.340;5.980;2023-03-18T02:08:42;96562.25;;;6.54;100.00
64713;BME280;51140;45.340;5.980;2023-03-18T02:11:08;96565.84;;;6.52;100.00
64713;BME280;51140;45.340;5.980;2023-03-18T02:13:38;96568.00;;;6.45;100.00
64713;BME280;51140;45.340;5.980;2023-03-18T02:16:17;96557.00;;;6.42;100.00
64713;BME280;51140;45.340;5.980;2023-03-18T02:18:57;96556.81;;;6.45;100.00
64713;BME280;51140;45.340;5.980;2023-03-18T02:21:51;96565.94;;;6.36;100.00
64713;BME280;51140;45.340;5.980;2023-03-18T02:27:28;96559.56;;;6.13;100.00
64713;BME280;51140;45.340;5.980;2023-03-18T02:29:58;96556.97;;;6.27;100.00
64713;BME280;51140;45.340;5.980;2023-03-18T02:32:30;96560.13;;;6.33;100.00
64713;BME280;51140;45.340;5.980;2023-03-18T02:34:58;96556.69;;;6.18;100.00
64713;BME280;51140;45.340;5.980;2023-03-18T02:37:25;96559.38;;;6.16;100.00
64713;BME280;51140;45.340;5.980;2023-03-18T02:39:50;96568.41;;;6.09;100.00
64713;BME280;51140;45.340;5.980;2023-03-18T02:42:27;96573.13;;;6.17;100.00
64713;BME280;51140;45.340;5.980;2023-03-18T02:44:53;96572.03;;;6.35;100.00
64713;BME280;51140;45.340;5.980;2023-03-18T02:47:20;96580.34;;;6.40;100.00
64713;BME280;51140;45.340;5.980;2023-03-18T02:49:48;96587.19;;;6.27;100.00
64713;BME280;51140;45.340;5.980;2023-03-18T02:52:14;96596.84;;;6.09;100.00
64713;BME280;51140;45.340;5.980;2023-03-18T02:54:39;96596.47;;;6.01;100.00
64713;BME280;51140;45.340;5.980;2023-03-18T02:57:05;96590.28;;;6.04;100.00
64713;BME280;51140;45.340;5.980;2023-03-18T02:59:30;96586.69;;;6.06;100.00
64713;BME280;51140;45.340;5.980;2023-03-18T03:01:57;96598.53;;;6.10;100.00
64713;BME280;51140;45.340;5.980;2023-03-18T03:04:24;96609.69;;;6.11;100.00
64713;BME280;51140;45.340;5.980;2023-03-18T03:06:50;96625.16;;;5.96;100.00
64713;BME280;51140;45.340;5.980;2023-03-18T03:09:17;96610.69;;;6.08;100.00
64713;BME280;51140;45.340;5.980;2023-03-18T03:11:44;96614.59;;;6.15;100.00
64713;BME280;51140;45.340;5.980;2023-03-18T03:14:10;96624.38;;;6.10;100.00
64713;BME280;51140;45.340;5.980;2023-03-18T03:16:36;96627.88;;;6.09;100.00
64713;BME280;51140;45.340;5.980;2023-03-18T03:19:03;96630.81;;;6.03;100.00
64713;BME280;51140;45.340;5.980;2023-03-18T03:21:30;96638.25;;;5.93;100.00
64713;BME280;51140;45.340;5.980;2023-03-18T03:23:56;96627.25;;;5.90;100.00
64713;BME280;51140;45.340;5.980;2023-03-18T03:26:22;96617.41;;;5.81;100.00
64713;BME280;51140;45.340;5.980;2023-03-18T03:28:47;96621.00;;;5.78;100.00
64713;BME280;51140;45.340;5.980;2023-03-18T03:31:13;96618.50;;;5.77;100.00
64713;BME280;51140;45.340;5.980;2023-03-18T03:33:40;96614.84;;;5.81;100.00
64713;BME280;51140;45.340;5.980;2023-03-18T03:36:10;96623.78;;;5.75;100.00
64713;BME280;51140;45.340;5.980;2023-03-18T03:38:35;96623.28;;;5.69;100.00
64713;BME280;51140;45.340;5.980;2023-03-18T03:41:01;96610.63;;;5.64;100.00
64713;BME280;51140;45.340;5.980;2023-03-18T03:43:27;96596.44;;;5.71;100.00
64713;BME280;51140;45.340;5.980;2023-03-18T03:45:52;96594.13;;;5.66;100.00
64713;BME280;51140;45.340;5.980;2023-03-18T03:48:18;96604.88;;;5.59;100.00
64713;BME280;51140;45.340;5.980;2023-03-18T03:50:44;96594.63;;;5.57;100.00
64713;BME280;51140;45.340;5.980;2023-03-18T03:53:09;96589.31;;;5.60;100.00
64713;BME280;51140;45.340;5.980;2023-03-18T03:55:35;96581.78;;;5.56;100.00
64713;BME280;51140;45.340;5.980;2023-03-18T03:58:00;96598.63;;;5.63;100.00
64713;BME280;51140;45.340;5.980;2023-03-18T04:00:26;96591.22;;;5.57;100.00
64713;BME280;51140;45.340;5.980;2023-03-18T04:02:52;96582.19;;;5.34;100.00
64713;BME280;51140;45.340;5.980;2023-03-18T04:05:20;96590.56;;;5.53;100.00
64713;BME280;51140;45.340;5.980;2023-03-18T04:07:47;96589.06;;;5.49;100.00
64713;BME280;51140;45.340;5.980;2023-03-18T04:10:14;96605.47;;;5.48;100.00
64713;BME280;51140;45.340;5.980;2023-03-18T04:12:42;96595.66;;;5.39;100.00
64713;BME280;51140;45.340;5.980;2023-03-18T04:15:07;96592.16;;;5.40;100.00
64713;BME280;51140;45.340;5.980;2023-03-18T04:17:34;96583.09;;;5.17;100.00
64713;BME280;51140;45.340;5.980;2023-03-18T04:20:00;96592.94;;;5.11;100.00
64713;BME280;51140;45.340;5.980;2023-03-18T04:22:25;96585.75;;;5.16;100.00
64713;BME280;51140;45.340;5.980;2023-03-18T04:24:50;96595.25;;;5.15;100.00
64713;BME280;51140;45.340;5.980;2023-03-18T04:27:16;96589.59;;;5.09;100.00
64713;BME280;51140;45.340;5.980;2023-03-18T04:29:43;96584.59;;;5.06;100.00
64713;BME280;51140;45.340;5.980;2023-03-18T04:32:09;96596.84;;;4.86;100.00
64713;BME280;51140;45.340;5.980;2023-03-18T04:34:35;96604.91;;;4.96;100.00
64713;BME280;51140;45.340;5.980;2023-03-18T04:37:01;96599.09;;;4.92;100.00
64713;BME280;51140;45.340;5.980;2023-03-18T04:39:26;96610.75;;;4.99;100.00
64713;BME280;51140;45.340;5.980;2023-03-18T04:41:52;96616.75;;;5.00;100.00
64713;BME280;51140;45.340;5.980;2023-03-18T04:44:18;96613.41;;;4.98;100.00
64713;BME280;51140;45.340;5.980;2023-03-18T04:46:45;96621.06;;;4.99;100.00
64713;BME280;51140;45.340;5.980;2023-03-18T04:49:10;96617.75;;;4.97;100.00
64713;BME280;51140;45.340;5.980;2023-03-18T04:51:36;96618.56;;;4.98;100.00
64713;BME280;51140;45.340;5.980;2023-03-18T04:54:01;96607.75;;;4.91;100.00
64713;BME280;51140;45.340;5.980;2023-03-18T04:56:27;96614.31;;;4.97;100.00
64713;BME280;51140;45.340;5.980;2023-03-18T04:58:53;96622.66;;;4.86;100.00
64713;BME280;51140;45.340;5.980;2023-03-18T05:01:18;96609.16;;;4.81;100.00
64713;BME280;51140;45.340;5.980;2023-03-18T05:03:44;96603.50;;;4.90;100.00
64713;BME280;51140;45.340;5.980;2023-03-18T05:06:18;96611.66;;;4.83;100.00
64713;BME280;51140;45.340;5.980;2023-03-18T05:08:44;96611.09;;;4.93;100.00
64713;BME280;51140;45.340;5.980;2023-03-18T05:11:10;96620.56;;;4.93;100.00
64713;BME280;51140;45.340;5.980;2023-03-18T05:13:35;96622.66;;;4.86;100.00
64713;BME280;51140;45.340;5.980;2023-03-18T05:16:00;96623.72;;;4.82;100.00
64713;BME280;51140;45.340;5.980;2023-03-18T05:18:26;96624.16;;;4.90;100.00
64713;BME280;51140;45.340;5.980;2023-03-18T05:20:51;96623.91;;;4.95;100.00
64713;BME280;51140;45.340;5.980;2023-03-18T05:23:17;96630.66;;;4.97;100.00
64713;BME280;51140;45.340;5.980;2023-03-18T05:25:42;96640.53;;;4.89;100.00
64713;BME280;51140;45.340;5.980;2023-03-18T05:28:08;96649.19;;;4.88;100.00
64713;BME280;51140;45.340;5.980;2023-03-18T05:30:33;96651.31;;;4.80;100.00
64713;BME280;51140;45.340;5.980;2023-03-18T05:33:01;96653.28;;;4.59;100.00
64713;BME280;51140;45.340;5.980;2023-03-18T05:35:27;96653.84;;;4.49;100.00
64713;BME280;51140;45.340;5.980;2023-03-18T05:37:54;96657.19;;;4.33;100.00
64713;BME280;51140;45.340;5.980;2023-03-18T05:40:19;96665.16;;;4.29;100.00
64713;BME280;51140;45.340;5.980;2023-03-18T05:42:45;96649.75;;;4.45;100.00
64713;BME280;51140;45.340;5.980;2023-03-18T05:45:11;96653.09;;;4.47;100.00
64713;BME280;51140;45.340;5.980;2023-03-18T05:47:36;96648.97;;;4.60;100.00
64713;BME280;51140;45.340;5.980;2023-03-18T05:50:02;96641.66;;;4.68;100.00
64713;BME280;51140;45.340;5.980;2023-03-18T05:52:28;96674.88;;;4.74;100.00
64713;BME280;51140;45.340;5.980;2023-03-18T05:54:53;96674.72;;;4.77;100.00
64713;BME280;51140;45.340;5.980;2023-03-18T05:57:19;96679.56;;;4.83;100.00
64713;BME280;51140;45.340;5.980;2023-03-18T05:59:45;96688.06;;;4.85;100.00
64713;BME280;51140;45.340;5.980;2023-03-18T06:02:10;96695.25;;;4.96;100.00
64713;BME280;51140;45.340;5.980;2023-03-18T06:04:37;96690.00;;;4.97;100.00
64713;BME280;51140;45.340;5.980;2023-03-18T06:07:02;96687.56;;;4.94;100.00
64713;BME280;51140;45.340;5.980;2023-03-18T06:09:30;96694.16;;;5.00;100.00
64713;BME280;51140;45.340;5.980;2023-03-18T06:11:57;96691.81;;;4.95;100.00
64713;BME280;51140;45.340;5.980;2023-03-18T06:14:23;96690.06;;;4.96;100.00
64713;BME280;51140;45.340;5.980;2023-03-18T06:16:53;96694.06;;;5.01;100.00
64713;BME280;51140;45.340;5.980;2023-03-18T06:19:19;96686.00;;;5.08;100.00
64713;BME280;51140;45.340;5.980;2023-03-18T06:21:46;96691.44;;;5.19;100.00
64713;BME280;51140;45.340;5.980;2023-03-18T06:24:11;96683.84;;;5.16;100.00
64713;BME280;51140;45.340;5.980;2023-03-18T06:26:38;96680.63;;;5.28;100.00
64713;BME280;51140;45.340;5.980;2023-03-18T06:29:04;96692.22;;;5.37;100.00
64713;BME280;51140;45.340;5.980;2023-03-18T06:31:29;96692.03;;;5.24;100.00
64713;BME280;51140;45.340;5.980;2023-03-18T06:33:55;96684.50;;;5.19;100.00
64713;BME280;51140;45.340;5.980;2023-03-18T06:36:20;96684.69;;;5.16;100.00
64713;BME280;51140;45.340;5.980;2023-03-18T06:38:46;96683.38;;;5.25;100.00
64713;BME280;51140;45.340;5.980;2023-03-18T06:41:12;96677.72;;;5.34;100.00
64713;BME280;51140;45.340;5.980;2023-03-18T06:43:37;96677.97;;;5.45;100.00
64713;BME280;51140;45.340;5.980;2023-03-18T06:46:03;96674.03;;;5.54;100.00
64713;BME280;51140;45.340;5.980;2023-03-18T06:48:29;96675.22;;;5.48;100.00
64713;BME280;51140;45.340;5.980;2023-03-18T06:50:55;96677.44;;;5.54;100.00
64713;BME280;51140;45.340;5.980;2023-03-18T06:53:20;96660.84;;;5.58;100.00
64713;BME280;51140;45.340;5.980;2023-03-18T06:55:46;96672.38;;;5.69;100.00
64713;BME280;51140;45.340;5.980;2023-03-18T06:58:12;96672.03;;;5.75;100.00
64713;BME280;51140;45.340;5.980;2023-03-18T07:00:38;96670.84;;;5.96;100.00
64713;BME280;51140;45.340;5.980;2023-03-18T07:03:05;96676.34;;;6.06;100.00
64713;BME280;51140;45.340;5.980;2023-03-18T07:05:31;96673.03;;;6.18;100.00
64713;BME280;51140;45.340;5.980;2023-03-18T07:07:57;96676.84;;;6.26;100.00
64713;BME280;51140;45.340;5.980;2023-03-18T07:10:25;96683.75;;;6.42;100.00
64713;BME280;51140;45.340;5.980;2023-03-18T07:12:52;96681.34;;;6.53;100.00
64713;BME280;51140;45.340;5.980;2023-03-18T07:15:18;96681.25;;;6.54;100.00
64713;BME280;51140;45.340;5.980;2023-03-18T07:17:46;96682.00;;;6.56;100.00
64713;BME280;51140;45.340;5.980;2023-03-18T07:20:11;96676.56;;;6.75;100.00
64713;BME280;51140;45.340;5.980;2023-03-18T07:22:37;96681.53;;;6.78;100.00
64713;BME280;51140;45.340;5.980;2023-03-18T07:25:03;96683.19;;;6.79;100.00
64713;BME280;51140;45.340;5.980;2023-03-18T07:27:28;96689.53;;;6.89;100.00
64713;BME280;51140;45.340;5.980;2023-03-18T07:29:54;96692.38;;;6.85;100.00
64713;BME280;51140;45.340;5.980;2023-03-18T07:32:21;96693.72;;;6.62;100.00
64713;BME280;51140;45.340;5.980;2023-03-18T07:34:47;96693.63;;;6.19;100.00
64713;BME280;51140;45.340;5.980;2023-03-18T07:37:12;96702.09;;;6.07;100.00
64713;BME280;51140;45.340;5.980;2023-03-18T07:39:39;96704.22;;;6.01;100.00
64713;BME280;51140;45.340;5.980;2023-03-18T07:42:04;96697.09;;;6.04;100.00
64713;BME280;51140;45.340;5.980;2023-03-18T07:44:30;96707.66;;;6.15;100.00
64713;BME280;51140;45.340;5.980;2023-03-18T07:46:56;96702.59;;;6.14;100.00
64713;BME280;51140;45.340;5.980;2023-03-18T07:49:21;96715.25;;;6.18;100.00
64713;BME280;51140;45.340;5.980;2023-03-18T07:51:48;96714.31;;;6.19;100.00
64713;BME280;51140;45.340;5.980;2023-03-18T07:54:13;96709.38;;;6.31;100.00
64713;BME280;51140;45.340;5.980;2023-03-18T07:56:39;96719.19;;;6.40;100.00
64713;BME280;51140;45.340;5.980;2023-03-18T07:59:04;96712.78;;;6.31;100.00
64713;BME280;51140;45.340;5.980;2023-03-18T08:01:29;96718.56;;;6.20;100.00
64713;BME280;51140;45.340;5.980;2023-03-18T08:03:55;96713.44;;;6.35;100.00
64713;BME280;51140;45.340;5.980;2023-03-18T08:06:20;96713.25;;;6.38;100.00
64713;BME280;51140;45.340;5.980;2023-03-18T08:08:46;96706.34;;;6.38;100.00
64713;BME280;51140;45.340;5.980;2023-03-18T08:11:13;96714.44;;;6.62;100.00
64713;BME280;51140;45.340;5.980;2023-03-18T08:13:39;96700.03;;;6.72;100.00
64713;BME280;51140;45.340;5.980;2023-03-18T08:16:05;96704.09;;;6.62;100.00
64713;BME280;51140;45.340;5.980;2023-03-18T08:18:31;96698.09;;;6.76;100.00
64713;BME280;51140;45.340;5.980;2023-03-18T08:20:56;96692.09;;;6.89;100.00
64713;BME280;51140;45.340;5.980;2023-03-18T08:23:22;96680.88;;;7.32;100.00
64713;BME280;51140;45.340;5.980;2023-03-18T08:25:48;96679.28;;;7.43;100.00
64713;BME280;51140;45.340;5.980;2023-03-18T08:28:15;96668.78;;;7.59;100.00
64713;BME280;51140;45.340;5.980;2023-03-18T08:30:40;96614.94;;;8.04;100.00
64713;BME280;51140;45.340;5.980;2023-03-18T08:33:06;96611.66;;;8.40;100.00
64713;BME280;51140;45.340;5.980;2023-03-18T08:35:32;96595.69;;;8.71;100.00
64713;BME280;51140;45.340;5.980;2023-03-18T08:37:58;96582.44;;;9.00;100.00
64713;BME280;51140;45.340;5.980;2023-03-18T08:40:23;96603.44;;;8.97;100.00
64713;BME280;51140;45.340;5.980;2023-03-18T08:42:50;96609.59;;;8.70;100.00
64713;BME280;51140;45.340;5.980;2023-03-18T08:45:16;96598.03;;;9.00;100.00
64713;BME280;51140;45.340;5.980;2023-03-18T08:47:42;96605.06;;;9.23;100.00
64713;BME280;51140;45.340;5.980;2023-03-18T08:50:08;96595.91;;;9.89;100.00
64713;BME280;51140;45.340;5.980;2023-03-18T08:52:34;96588.16;;;10.35;100.00
64713;BME280;51140;45.340;5.980;2023-03-18T08:55:02;96596.34;;;10.64;100.00
64713;BME280;51140;45.340;5.980;2023-03-18T08:57:27;96573.94;;;11.18;100.00
64713;BME280;51140;45.340;5.980;2023-03-18T08:59:53;96594.00;;;11.60;100.00
64713;BME280;51140;45.340;5.980;2023-03-18T09:02:19;96579.28;;;13.36;100.00
64713;BME280;51140;45.340;5.980;2023-03-18T09:04:45;96592.31;;;16.08;100.00
64713;BME280;51140;45.340;5.980;2023-03-18T09:07:12;96728.44;;;22.75;100.00
64713;BME280;51140;45.340;5.980;2023-03-18T09:09:39;96835.59;;;24.78;100.00
64713;BME280;51140;45.340;5.980;2023-03-18T09:12:05;96660.41;;;26.80;100.00
64713;BME280;51140;45.340;5.980;2023-03-18T09:14:31;97954.59;;;30.46;100.00
64713;BME280;51140;45.340;5.980;2023-03-18T09:16:57;97915.16;;;32.72;100.00
64713;BME280;51140;45.340;5.980;2023-03-18T09:19:24;97900.75;;;33.45;100.00
64713;BME280;51140;45.340;5.980;2023-03-18T09:21:49;97916.69;;;32.07;100.00
64713;BME280;51140;45.340;5.980;2023-03-18T09:24:15;97945.50;;;29.88;100.00
64713;BME280;51140;45.340;5.980;2023-03-18T09:26:40;97975.38;;;27.58;100.00
64713;BME280;51140;45.340;5.980;2023-03-18T09:29:06;97992.09;;;27.24;100.00
64713;BME280;51140;45.340;5.980;2023-03-18T09:31:31;97981.78;;;28.55;100.00
64713;BME280;51140;45.340;5.980;2023-03-18T09:33:57;97937.91;;;30.96;100.00
64713;BME280;51140;45.340;5.980;2023-03-18T09:36:22;97907.72;;;33.76;93.91
64713;BME280;51140;45.340;5.980;2023-03-18T09:38:48;97877.97;;;35.38;84.86
64713;BME280;51140;45.340;5.980;2023-03-18T09:41:23;97861.38;;;36.19;74.83
64713;BME280;51140;45.340;5.980;2023-03-18T09:44:24;97914.38;;;32.54;74.90
64713;BME280;51140;45.340;5.980;2023-03-18T09:52:26;98050.19;;;23.40;100.00
64713;BME280;51140;45.340;5.980;2023-03-18T09:55:39;98030.69;;;24.47;100.00
64713;BME280;51140;45.340;5.980;2023-03-18T10:00:42;98039.06;;;23.44;100.00
64713;BME280;51140;45.340;5.980;2023-03-18T10:10:46;97973.75;;;27.78;96.35
64713;BME280;51140;45.340;5.980;2023-03-18T10:13:34;97895.94;;;33.59;86.35
64713;BME280;51140;45.340;5.980;2023-03-18T10:16:03;97885.41;;;33.81;75.02
64713;BME280;51140;45.340;5.980;2023-03-18T10:18:32;97896.28;;;32.72;75.25
64713;BME280;51140;45.340;5.980;2023-03-18T10:21:03;97894.88;;;33.60;75.44
64713;BME280;51140;45.340;5.980;2023-03-18T10:23:39;97993.78;;;26.95;96.41
64713;BME280;51140;45.340;5.980;2023-03-18T10:26:29;97974.63;;;26.92;93.93
64713;BME280;51140;45.340;5.980;2023-03-18T10:29:05;97908.38;;;31.52;84.30
64713;BME280;51140;45.340;5.980;2023-03-18T10:34:20;97909.06;;;32.22;75.97
64713;BME280;51140;45.340;5.980;2023-03-18T10:37:04;97932.50;;;30.18;75.77
64713;BME280;51140;45.340;5.980;2023-03-18T10:39:31;97908.44;;;32.63;77.84
64713;BME280;51140;45.340;5.980;2023-03-18T10:42:00;97923.19;;;30.98;70.17
64713;BME280;51140;45.340;5.980;2023-03-18T10:44:34;97936.88;;;30.06;77.13
64713;BME280;51140;45.340;5.980;2023-03-18T10:47:12;97935.16;;;30.31;78.82
64713;BME280;51140;45.340;5.980;2023-03-18T10:49:41;97976.53;;;27.12;81.71
64713;BME280;51140;45.340;5.980;2023-03-18T10:52:18;98020.03;;;24.14;100.00
64713;BME280;51140;45.340;5.980;2023-03-18T10:54:45;97983.31;;;26.49;97.11
64713;BME280;51140;45.340;5.980;2023-03-18T10:57:15;97976.41;;;26.17;97.29
64713;BME280;51140;45.340;5.980;2023-03-18T10:59:42;97958.09;;;27.39;93.27
64713;BME280;51140;45.340;5.980;2023-03-18T11:04:58;97923.56;;;29.38;83.26
64713;BME280;51140;45.340;5.980;2023-03-18T11:07:27;97925.03;;;29.60;84.32
64713;BME280;51140;45.340;5.980;2023-03-18T11:09:53;97930.22;;;29.62;92.55
64713;BME280;51140;45.340;5.980;2023-03-18T11:14:48;97946.84;;;27.86;97.14
64713;BME280;51140;45.340;5.980;2023-03-18T11:17:31;97913.88;;;30.30;96.87
64713;BME280;51140;45.340;5.980;2023-03-18T11:20:23;97916.13;;;30.39;91.65
64713;BME280;51140;45.340;5.980;2023-03-18T11:23:03;97968.69;;;25.62;97.59
64713;BME280;51140;45.340;5.980;2023-03-18T11:25:37;97996.06;;;24.30;100.00
64713;BME280;51140;45.340;5.980;2023-03-18T11:28:04;98026.78;;;22.15;100.00
64713;BME280;51140;45.340;5.980;2023-03-18T11:30:45;98036.84;;;21.23;100.00
64713;BME280;51140;45.340;5.980;2023-03-18T11:33:15;97991.78;;;23.72;100.00
64713;BME280;51140;45.340;5.980;2023-03-18T11:35:49;97965.50;;;24.74;100.00
64713;BME280;51140;45.340;5.980;2023-03-18T11:38:24;97959.47;;;25.73;100.00
64713;BME280;51140;45.340;5.980;2023-03-18T11:40:55;97938.03;;;26.18;100.00
64713;BME280;51140;45.340;5.980;2023-03-18T11:43:29;97932.88;;;26.91;100.00
64713;BME280;51140;45.340;5.980;2023-03-18T11:46:00;97905.88;;;27.22;100.00
64713;BME280;51140;45.340;5.980;2023-03-18T11:48:38;97924.03;;;26.90;100.00
64713;BME280;51140;45.340;5.980;2023-03-18T11:56:41;98028.91;;;20.86;100.00
64713;BME280;51140;45.340;5.980;2023-03-18T12:25:06;97986.41;;;19.36;100.00
64713;BME280;51140;45.340;5.980;2023-03-18T12:27:14;97969.59;;;19.56;100.00
64713;BME280;51140;45.340;5.980;2023-03-18T12:32:25;97974.03;;;18.77;100.00
64713;BME280;51140;45.340;5.980;2023-03-18T12:43:02;97964.72;;;18.63;100.00
64713;BME280;51140;45.340;5.980;2023-03-18T12:45:38;97963.72;;;18.64;100.00
64713;BME280;51140;45.340;5.980;2023-03-18T12:48:22;97973.00;;;18.28;100.00
64713;BME280;51140;45.340;5.980;2023-03-18T12:51:02;97960.25;;;18.33;100.00
64713;BME280;51140;45.340;5.980;2023-03-18T12:53:37;97953.81;;;18.97;100.00
64713;BME280;51140;45.340;5.980;2023-03-18T12:56:13;97962.19;;;18.31;100.00
64713;BME280;51140;45.340;5.980;2023-03-18T12:58:51;97980.50;;;17.06;100.00
64713;BME280;51140;45.340;5.980;2023-03-18T13:01:34;97955.22;;;18.30;100.00
64713;BME280;51140;45.340;5.980;2023-03-18T13:04:14;97939.22;;;18.93;100.00
64713;BME280;51140;45.340;5.980;2023-03-18T13:06:50;97941.78;;;19.23;100.00
64713;BME280;51140;45.340;5.980;2023-03-18T13:09:40;97945.13;;;19.25;100.00
64713;BME280;51140;45.340;5.980;2023-03-18T13:12:37;97945.19;;;18.85;100.00
64713;BME280;51140;45.340;5.980;2023-03-18T13:17:41;97967.88;;;17.32;100.00
64713;BME280;51140;45.340;5.980;2023-03-18T13:20:34;97947.56;;;17.97;100.00
64713;BME280;51140;45.340;5.980;2023-03-18T13:31:06;97937.09;;;18.77;100.00
64713;BME280;51140;45.340;5.980;2023-03-18T13:44:14;97929.84;;;17.78;100.00
64713;BME280;51140;45.340;5.980;2023-03-18T13:46:52;97927.53;;;17.84;100.00
64713;BME280;51140;45.340;5.980;2023-03-18T13:49:24;97931.38;;;18.01;100.00
64713;BME280;51140;45.340;5.980;2023-03-18T13:51:56;97912.16;;;18.10;100.00
64713;BME280;51140;45.340;5.980;2023-03-18T13:54:22;97914.34;;;17.64;100.00
64713;BME280;51140;45.340;5.980;2023-03-18T13:56:51;97902.19;;;18.24;100.00
64713;BME280;51140;45.340;5.980;2023-03-18T14:01:58;97902.00;;;18.46;100.00
64713;BME280;51140;45.340;5.980;2023-03-18T14:04:46;97887.50;;;18.71;100.00
64713;BME280;51140;45.340;5.980;2023-03-18T14:07:15;97910.81;;;18.26;100.00
64713;BME280;51140;45.340;5.980;2023-03-18T14:15:02;97895.44;;;18.81;100.00
64713;BME280;51140;45.340;5.980;2023-03-18T14:20:23;97902.78;;;18.37;100.00
64713;BME280;51140;45.340;5.980;2023-03-18T14:22:51;97903.66;;;18.07;100.00
64713;BME280;51140;45.340;5.980;2023-03-18T14:33:29;97910.53;;;17.98;100.00
64713;BME280;51140;45.340;5.980;2023-03-18T14:36:04;97902.63;;;17.98;100.00
64713;BME280;51140;45.340;5.980;2023-03-18T14:38:37;97901.50;;;17.91;100.00
64713;BME280;51140;45.340;5.980;2023-03-18T14:41:26;97883.91;;;18.32;100.00
64713;BME280;51140;45.340;5.980;2023-03-18T14:47:05;97897.88;;;17.92;100.00
64713;BME280;51140;45.340;5.980;2023-03-18T14:50:00;97867.75;;;17.43;100.00
64713;BME280;51140;45.340;5.980;2023-03-18T14:52:37;97887.28;;;17.41;100.00
64713;BME280;51140;45.340;5.980;2023-03-18T14:55:10;97886.59;;;17.39;100.00
64713;BME280;51140;45.340;5.980;2023-03-18T14:57:38;97895.91;;;17.22;100.00